< < Back
Terminal Aerodrome Forecast


Current Version              Previous Versions:   1  2  3  4  5  6  7  8  9  

Terminal Aerodrome Forecast

555
FTUS42 KFFC 280526
TAFATL
TAF
KATL 280526Z 2806/2912 34008KT P6SM SKC
     FM281500 35006KT P6SM SKC
     FM282100 26005KT P6SM SKC
     FM290000 20003KT P6SM SKC=

Latest METAR

934
SAUS70 KWBC 281400
MTRATL
METAR KATL 281352Z 36008KT 340V050 10SM CLR 01/M06 A3039 RMK AO2 SLP298
T00061056


USA.gov is the U.S. government's official web portal to all federal, state and local government web resources and services.